Latest Weather Observations for Melville Water

IDW60801

Issued at 2:35 am WST Monday 24 November 2014 (issued every 30 minutes, with the page automatically refreshed every 10 minutes)

About weather observations | Map of weather stations | Latest weather observations for WA | Other Formats
Station Details ID: 009091 Name: INNER DOLPHIN PYLON Lat: -31.99 Lon: 115.83 Height: 0.0 m
Data from the previous 72 hours. | See also: Recent months for locations in Western Australia
Date/Time
WST
Temp
°C
App
Temp
°C
Dew
Point
Rel
Hum
%
Delta-T
°C
Wind Press
QNH
hPa
Press
MSL
hPa
Rain
since 9 am
mm
Dir
 
Spd
km/h
Gust
km/h
Spd
kts
Gust
kts
24/02:30am - - - - - S 17 22 9 12 - - -
24/02:00am - - - - - S 17 22 9 12 - - -
24/01:30am - - - - - S 17 22 9 12 - - -
24/01:00am - - - - - S 20 24 11 13 - - -
24/12:30am - - - - - S 19 24 10 13 - - -
24/12:00am - - - - - S 20 26 11 14 - - -
 
Date/Time
WST
Temp
°C
App
Temp
°C
Dew
Point
Rel
Hum
%
Delta-T
°C
Wind Press
QNH
hPa
Press
MSL
hPa
Rain
since 9 am
mm
Dir
 
Spd
km/h
Gust
km/h
Spd
kts
Gust
kts
23/11:30pm - - - - - S 24 32 13 17 - - -
23/11:00pm - - - - - S 28 37 15 20 - - -
23/10:30pm - - - - - S 20 30 11 16 - - -
23/10:00pm - - - - - S 20 28 11 15 - - -
23/09:30pm - - - - - S 22 28 12 15 - - -
23/09:00pm - - - - - S 20 26 11 14 - - -
23/08:30pm - - - - - S 24 30 13 16 - - -
23/08:00pm - - - - - SSW 26 32 14 17 - - -
23/07:30pm - - - - - SSW 28 35 15 19 - - -
23/07:00pm - - - - - SSW 33 41 18 22 - - -
23/06:30pm - - - - - SSW 35 43 19 23 - - -
23/06:00pm - - - - - SW 32 39 17 21 - - -
23/05:30pm - - - - - SSW 33 41 18 22 - - -
23/05:00pm - - - - - SW 35 44 19 24 - - -
23/04:30pm - - - - - SW 35 43 19 23 - - -
23/04:00pm - - - - - SW 33 44 18 24 - - -
23/03:30pm - - - - - SSW 33 41 18 22 - - -
23/03:00pm - - - - - SW 30 39 16 21 - - -
23/02:30pm - - - - - SW 32 39 17 21 - - -
23/02:00pm - - - - - SW 30 37 16 20 - - -
23/01:30pm - - - - - SW 28 35 15 19 - - -
23/01:00pm - - - - - SW 26 32 14 17 - - -
23/12:30pm - - - - - SW 26 33 14 18 - - -
23/12:00pm - - - - - WSW 24 32 13 17 - - -
23/11:30am - - - - - WSW 22 30 12 16 - - -
23/11:00am - - - - - WSW 26 35 14 19 - - -
23/10:30am - - - - - SW 28 39 15 21 - - -
23/10:00am - - - - - SW 28 35 15 19 - - -
23/09:30am - - - - - SSW 30 35 16 19 - - -
23/09:00am - - - - - SSW 24 39 13 21 - - -
23/08:30am - - - - - SW 28 39 15 21 - - -
23/08:00am - - - - - SW 22 30 12 16 - - -
23/07:30am - - - - - SSW 32 39 17 21 - - -
23/07:00am - - - - - SW 26 35 14 19 - - -
23/06:30am - - - - - SW 22 28 12 15 - - -
23/06:00am - - - - - SW 28 37 15 20 - - -
23/05:30am - - - - - SW 20 24 11 13 - - -
23/05:00am - - - - - SW 26 35 14 19 - - -
23/04:30am - - - - - SW 24 32 13 17 - - -
23/04:00am - - - - - SSW 22 28 12 15 - - -
23/03:30am - - - - - SW 28 33 15 18 - - -
23/03:00am - - - - - SW 26 33 14 18 - - -
23/02:30am - - - - - SW 28 35 15 19 - - -
23/02:00am - - - - - SW 26 32 14 17 - - -
23/01:30am - - - - - SW 24 30 13 16 - - -
23/01:00am - - - - - SSW 28 35 15 19 - - -
23/12:30am - - - - - SSW 28 37 15 20 - - -
23/12:00am - - - - - SW 24 32 13 17 - - -
 
Date/Time
WST
Temp
°C
App
Temp
°C
Dew
Point
Rel
Hum
%
Delta-T
°C
Wind Press
QNH
hPa
Press
MSL
hPa
Rain
since 9 am
mm
Dir
 
Spd
km/h
Gust
km/h
Spd
kts
Gust
kts
22/11:30pm - - - - - SW 24 30 13 16 - - -
22/11:00pm - - - - - SW 26 33 14 18 - - -
22/10:30pm - - - - - SSW 22 28 12 15 - - -
22/10:00pm - - - - - SSW 19 24 10 13 - - -
22/09:30pm - - - - - SW 17 22 9 12 - - -
22/09:00pm - - - - - SW 17 24 9 13 - - -
22/08:30pm - - - - - SSW 15 20 8 11 - - -
22/08:00pm - - - - - SSW 22 28 12 15 - - -
22/07:30pm - - - - - SW 20 26 11 14 - - -
22/07:00pm - - - - - SW 26 32 14 17 - - -
22/06:30pm - - - - - SW 24 33 13 18 - - -
22/06:00pm - - - - - SW 24 30 13 16 - - -
22/05:30pm - - - - - SW 24 32 13 17 - - -
22/05:00pm - - - - - WSW 26 33 14 18 - - -
22/04:30pm - - - - - WSW 24 32 13 17 - - -
22/04:00pm - - - - - WSW 24 33 13 18 - - -
22/03:30pm - - - - - WSW 22 33 12 18 - - -
22/03:00pm - - - - - WSW 24 30 13 16 - - -
22/02:30pm - - - - - WSW 26 33 14 18 - - -
22/02:00pm - - - - - WSW 24 32 13 17 - - -
22/01:30pm - - - - - WSW 24 33 13 18 - - -
22/01:00pm - - - - - WSW 22 30 12 16 - - -
22/12:30pm - - - - - WSW 17 24 9 13 - - -
22/12:00pm - - - - - WSW 22 26 12 14 - - -
22/11:30am - - - - - WSW 20 24 11 13 - - -
22/11:00am - - - - - WSW 22 28 12 15 - - -
22/10:30am - - - - - WSW 17 24 9 13 - - -
22/10:00am - - - - - SW 20 26 11 14 - - -
22/09:30am - - - - - SW 19 24 10 13 - - -
22/09:00am - - - - - SW 19 32 10 17 - - -
22/08:30am - - - - - SW 17 20 9 11 - - -
22/08:00am - - - - - SW 17 26 9 14 - - -
22/07:30am - - - - - SSW 9 15 5 8 - - -
22/07:00am - - - - - SSW 6 13 3 7 - - -
22/06:30am - - - - - SSE 11 17 6 9 - - -
22/06:00am - - - - - W 9 13 5 7 - - -
22/05:30am - - - - - WSW 17 20 9 11 - - -
22/05:00am - - - - - SSW 15 24 8 13 - - -
22/04:30am - - - - - SW 19 22 10 12 - - -
22/04:00am - - - - - SW 19 24 10 13 - - -
22/03:30am - - - - - S 13 19 7 10 - - -
22/03:00am - - - - - SSW 15 19 8 10 - - -
22/02:30am - - - - - S 13 19 7 10 - - -
22/02:00am - - - - - SSW 19 24 10 13 - - -
22/01:30am - - - - - SW 20 24 11 13 - - -
22/01:00am - - - - - SSW 26 32 14 17 - - -
22/12:30am - - - - - SW 28 32 15 17 - - -
22/12:00am - - - - - WSW 17 20 9 11 - - -
 
Date/Time
WST
Temp
°C
App
Temp
°C
Dew
Point
Rel
Hum
%
Delta-T
°C
Wind Press
QNH
hPa
Press
MSL
hPa
Rain
since 9 am
mm
Dir
 
Spd
km/h
Gust
km/h
Spd
kts
Gust
kts
21/11:30pm - - - - - WSW 17 24 9 13 - - -
21/11:00pm - - - - - WNW 11 15 6 8 - - -
21/10:30pm - - - - - SSW 15 19 8 10 - - -
21/10:00pm - - - - - SW 20 24 11 13 - - -
21/09:30pm - - - - - SW 20 26 11 14 - - -
21/09:00pm - - - - - SW 22 28 12 15 - - -
21/08:30pm - - - - - SW 20 32 11 17 - - -
21/08:00pm - - - - - SW 15 22 8 12 - - -
21/07:30pm - - - - - WSW 19 24 10 13 - - -
21/07:00pm - - - - - WSW 17 24 9 13 - - -
21/06:30pm - - - - - WSW 19 24 10 13 - - -
21/06:00pm - - - - - WSW 20 28 11 15 - - -
21/05:30pm - - - - - WSW 22 30 12 16 - - -
21/05:00pm - - - - - WSW 19 26 10 14 - - -
21/04:30pm - - - - - WSW 22 32 12 17 - - -
21/04:00pm - - - - - SW 26 35 14 19 - - -
21/03:30pm - - - - - WSW 26 35 14 19 - - -
21/03:00pm - - - - - WSW 22 33 12 18 - - -
21/02:30pm - - - - - WSW 24 35 13 19 - - -
21/02:00pm - - - - - WSW 22 30 12 16 - - -
21/01:30pm - - - - - WSW 22 30 12 16 - - -
21/01:00pm - - - - - WSW 24 35 13 19 - - -
21/12:30pm - - - - - WSW 26 35 14 19 - - -
21/12:00pm - - - - - WSW 24 32 13 17 - - -
21/11:30am - - - - - WSW 28 37 15 20 - - -
21/11:00am - - - - - WSW 26 32 14 17 - - -
21/10:30am - - - - - SW 28 32 15 17 - - -
21/10:00am - - - - - WSW 24 30 13 16 - - -
21/09:30am - - - - - WSW 24 32 13 17 - - -
21/09:00am - - - - - WSW 24 30 13 16 - - -
21/08:30am - - - - - WSW 22 28 12 15 - - -
21/08:00am - - - - - W 17 20 9 11 - - -
21/07:30am - - - - - W 13 22 7 12 - - -
21/07:00am - - - - - WSW 24 32 13 17 - - -
21/06:30am - - - - - WSW 20 24 11 13 - - -
21/06:00am - - - - - W 20 26 11 14 - - -
21/05:30am - - - - - W 17 24 9 13 - - -
21/05:00am - - - - - W 15 22 8 12 - - -
21/04:30am - - - - - WNW 13 20 7 11 - - -
21/04:00am - - - - - W 17 22 9 12 - - -
21/03:30am - - - - - W 15 22 8 12 - - -
21/03:00am - - - - - W 15 20 8 11 - - -

Other Formats:

Comma delimited format used in spreadsheet applications
http://www.bom.gov.au/fwo/IDW60801/IDW60801.95620.axf

JavaScript Object Notation format (JSON) in row-major order
http://www.bom.gov.au/fwo/IDW60801/IDW60801.95620.json